EDDE Airport Information

Runway Information
Runway 10 Length 8530 ft width 164 ft
Elevation 1025 ft Threshold 0 ft Heading 98
Runway 28 Length 8530 ft Width 164 ft
Elevation 1016 ft Threshold 689 ft Heading 278
Airport Frequencies
Type APP Name MUNCHEN RA Frequency 132.3 MHZ
Type ATIS Name ATIS Frequency 133.45 MHZ
Type GND Name GND Frequency 121.75 MHZ
Type INFO Name MUNCHEN IN Frequency 120.65 MHZ
Type RMP Name APRON Frequency 121.9 MHZ
Type TWR Name TWR Frequency 121.15 MHZ
Airport Navaids
Type DME Name Erfurt Frequency 112050 KHZ
Type VOR-DME Name Erfurt Frequency 113850 KHZ
Type NDB Name Erfurt Frequency 425 KHZ
Airport Weather Information & NOTAM
ADDS - METARS form results

(1755 UTC 18 July 2018)
 
METAR text: EDDE 181750Z 34010KT CAVOK 24/08 Q1017 NOSIG
Conditions at: EDDE (ERFURT/BINDERSLE, DE) observed 1750 UTC 18 July 2018
Temperature: 24.0°C (75°F)
Dewpoint: 8.0°C (46°F) [RH = 36%]
Pressure (altimeter): 30.03 inches Hg (1017.0 mb)
Winds: from the NNW (340 degrees) at 12 MPH (10 knots; 5.2 m/s)
Visibility: 6 or more miles (10+ km)
Ceiling: ceiling and visibility are OK
Clouds: unknown
Weather: no significant weather observed at this time

METAR text: EDDE 181720Z 33010KT 300V360 CAVOK 24/08 Q1017 NOSIG
Conditions at: EDDE (ERFURT/BINDERSLE, DE) observed 1720 UTC 18 July 2018
Temperature: 24.0°C (75°F)
Dewpoint: 8.0°C (46°F) [RH = 36%]
Pressure (altimeter): 30.03 inches Hg (1017.0 mb)
Winds: from the NNW (330 degrees) at 12 MPH (10 knots; 5.2 m/s)
Visibility: 6 or more miles (10+ km)
Ceiling: ceiling and visibility are OK
Clouds: unknown
Weather: no significant weather observed at this time